Artesia ASC

2021-05-08 23:20:00

  • imperial
Date Time Air Temperature Relative Humidity Dewpoint Windchill Heat Index Wind Speed Wind Dir. Rain Solar Radiation Soil Temperature
2m 2m 3m 3m 10cm
US/Mountain F % F F F MPH deg in MJ/m^2 F
max avg avg
2021-05-07 23:30:00 69.5 48.5 49.2 69.5 69.5 11.2 11.5 8.7 133.3 126.4 0.00 0.0000000 73.3
2021-05-07 23:35:00 69.7 49.6 50.0 69.7 69.7 9.7 11.3 8.7 136.2 136.5 0.00 0.0000000 73.2
2021-05-07 23:40:00 69.6 49.0 49.6 69.6 69.6 12.8 14.6 11.3 132.6 135.6 0.00 0.0000000 73.2
2021-05-07 23:45:00 70.4 47.7 49.7 70.4 70.4 9.4 15.8 10.6 150.5 136.8 0.00 0.0000000 73.1
2021-05-07 23:50:00 69.7 48.6 49.5 69.7 69.7 10.1 10.1 7.9 133.1 138.1 0.00 0.0000000 73.0
2021-05-07 23:55:00 69.1 51.0 50.2 69.1 69.1 8.8 9.9 8.2 121.3 127.5 0.00 0.0000000 73.0
2021-05-08 00:00:00 68.8 50.8 49.8 68.8 68.8 5.6 10.5 7.5 106.8 124.2 0.00 0.0000000 73.0
2021-05-08 00:05:00 68.5 52.2 50.3 68.5 68.5 5.3 8.0 5.6 110.7 116.6 0.00 0.0000000 72.9
2021-05-08 00:10:00 68.0 53.7 50.6 68.0 68.0 7.8 8.1 6.8 109.2 111.2 0.00 0.0000000 72.9
2021-05-08 00:15:00 67.4 54.7 50.5 67.4 67.4 6.5 8.7 6.9 107.7 114.2 0.00 0.0000000 72.8
2021-05-08 00:20:00 67.4 53.1 49.7 67.4 67.4 7.4 7.6 6.1 116.2 119.9 0.00 0.0000000 72.8
2021-05-08 00:25:00 68.3 51.2 49.6 68.3 68.3 8.0 9.0 7.3 137.8 131.6 0.00 0.0000000 72.8
2021-05-08 00:30:00 68.1 52.3 49.9 68.1 68.1 8.0 8.5 7.2 138.5 136.6 0.00 0.0000000 72.7
2021-05-08 00:35:00 68.1 52.0 49.9 68.1 68.1 8.0 9.2 7.5 133.6 138.0 0.00 0.0000000 72.6
2021-05-08 00:40:00 68.4 51.9 50.0 68.4 68.4 9.4 10.3 8.6 147.8 139.5 0.00 0.0000000 72.6
2021-05-08 00:45:00 67.9 52.2 49.7 67.9 67.9 8.5 10.5 8.6 145.6 139.7 0.00 0.0000000 72.5
2021-05-08 00:50:00 68.5 50.9 49.6 68.5 68.5 9.7 11.9 8.9 152.7 141.1 0.00 0.0000000 72.5
2021-05-08 00:55:00 68.1 51.7 49.7 68.1 68.1 8.1 9.9 8.5 138.7 148.0 0.00 0.0000000 72.4
2021-05-08 01:00:00 68.1 51.9 49.7 68.1 68.1 9.0 10.3 8.8 146.3 140.9 0.00 0.0000000 72.4
2021-05-08 01:05:00 68.3 51.3 49.6 68.3 68.3 11.0 11.0 9.3 136.1 141.0 0.00 0.0000000 72.4
2021-05-08 01:10:00 67.8 52.2 49.6 67.8 67.8 9.6 11.5 9.0 147.4 138.1 0.00 0.0000000 72.3
2021-05-08 01:15:00 67.6 53.2 49.9 67.6 67.6 9.0 10.5 8.6 135.1 141.9 0.00 0.0000000 72.3
2021-05-08 01:20:00 67.3 53.6 49.9 67.3 67.3 6.5 10.3 8.4 147.7 143.2 0.00 0.0000000 72.2
2021-05-08 01:25:00 67.0 54.9 50.3 67.0 67.0 6.0 8.3 6.8 145.3 149.9 0.00 0.0000000 72.2
2021-05-08 01:30:00 66.8 54.7 49.9 66.8 66.8 6.2 7.4 6.2 158.9 153.1 0.00 0.0000000 72.1
2021-05-08 01:35:00 66.7 54.9 49.9 66.7 66.7 6.7 8.3 6.6 145.3 145.9 0.00 0.0000000 72.1
2021-05-08 01:40:00 66.8 54.5 49.9 66.8 66.8 7.2 9.2 7.2 142.0 143.7 0.00 0.0000000 72.0
2021-05-08 01:45:00 66.3 56.1 50.2 66.3 66.3 5.6 6.9 5.7 158.2 149.4 0.00 0.0000000 72.0
2021-05-08 01:50:00 65.9 56.3 49.9 65.9 65.9 6.3 7.1 5.8 144.6 147.1 0.00 0.0000000 72.0
2021-05-08 01:55:00 65.4 57.5 50.0 65.4 65.4 5.1 6.3 5.1 151.6 151.5 0.00 0.0000000 71.9
2021-05-08 02:00:00 64.6 59.2 50.0 64.6 64.6 4.6 5.1 4.7 157.2 149.1 0.00 0.0000000 71.9
2021-05-08 02:05:00 64.1 60.6 50.2 64.1 64.1 5.6 5.6 4.6 151.5 151.0 0.00 0.0000000 71.8
2021-05-08 02:10:00 64.5 60.1 50.4 64.5 64.5 5.8 6.2 5.3 149.8 149.9 0.00 0.0000000 71.7
2021-05-08 02:15:00 64.7 59.3 50.1 64.7 64.7 5.8 8.0 6.3 146.5 145.0 0.00 0.0000000 71.7
2021-05-08 02:20:00 64.1 60.7 50.2 64.1 64.1 7.4 7.4 6.2 146.2 143.4 0.00 0.0000000 71.7
2021-05-08 02:25:00 64.1 61.2 50.5 64.1 64.1 6.3 8.0 6.6 147.9 148.6 0.00 0.0000000 71.6
2021-05-08 02:30:00 63.9 62.0 50.6 63.9 63.9 5.6 7.6 6.5 145.6 151.0 0.00 0.0000000 71.6
2021-05-08 02:35:00 63.5 63.0 50.7 63.5 63.5 5.1 7.1 5.6 160.2 152.0 0.00 0.0000000 71.5
2021-05-08 02:40:00 62.9 63.5 50.3 62.9 62.9 3.5 5.5 4.6 169.6 168.8 0.00 0.0000000 71.5
2021-05-08 02:45:00 63.2 63.2 50.5 63.2 63.2 6.0 6.2 5.0 150.8 165.8 0.00 0.0000000 71.4
2021-05-08 02:50:00 62.8 63.7 50.3 62.8 62.8 5.5 6.3 5.3 139.4 158.7 0.00 0.0000000 71.4
2021-05-08 02:55:00 62.0 66.4 50.7 62.0 62.0 5.1 7.1 5.8 162.2 153.5 0.00 0.0000000 71.3
2021-05-08 03:00:00 61.7 67.7 50.9 61.7 61.7 5.5 7.1 5.9 144.1 153.8 0.00 0.0000000 71.3
2021-05-08 03:05:00 61.7 66.9 50.5 61.7 61.7 5.3 6.7 5.7 146.6 154.3 0.00 0.0000000 71.2
2021-05-08 03:10:00 61.5 67.8 50.8 61.5 61.5 5.5 6.0 5.4 152.5 156.0 0.00 0.0000000 71.2
2021-05-08 03:15:00 60.8 70.1 51.0 60.8 60.8 4.7 5.5 4.6 156.1 152.2 0.00 0.0000000 71.1
2021-05-08 03:20:00 60.3 70.6 50.7 60.3 60.3 4.0 4.7 4.1 152.4 153.3 0.00 0.0000000 71.1
2021-05-08 03:25:00 60.1 70.8 50.6 60.1 60.1 4.0 4.0 3.7 158.1 156.1 0.00 0.0000000 71.1
2021-05-08 03:30:00 60.4 69.9 50.6 60.4 60.4 4.7 4.7 3.8 162.1 173.9 0.00 0.0000000 71.0
2021-05-08 03:35:00 60.1 71.1 50.7 60.1 60.1 4.2 4.7 4.3 175.2 163.6 0.00 0.0000000 70.9
2021-05-08 03:40:00 59.4 72.1 50.4 59.4 59.4 3.3 4.7 3.9 142.0 154.8 0.00 0.0000000 70.9
2021-05-08 03:45:00 59.0 74.6 50.9 59.0 59.0 3.8 4.6 3.6 172.1 149.6 0.00 0.0000000 70.9
2021-05-08 03:50:00 59.6 73.7 51.2 59.6 59.6 4.2 4.4 4.1 153.5 162.5 0.00 0.0000000 70.8
2021-05-08 03:55:00 60.0 72.7 51.2 60.0 60.0 5.3 5.3 4.9 145.8 151.8 0.00 0.0000000 70.8
2021-05-08 04:00:00 60.0 73.5 51.5 60.0 60.0 4.7 5.8 5.0 140.2 151.6 0.00 0.0000000 70.7
2021-05-08 04:05:00 59.8 73.3 51.3 59.8 59.8 4.4 5.3 4.5 170.6 155.0 0.00 0.0000000 70.7
2021-05-08 04:10:00 60.0 73.3 51.4 60.0 60.0 4.6 5.3 4.7 176.0 166.7 0.00 0.0000000 70.6
2021-05-08 04:15:00 60.1 72.6 51.3 60.1 60.1 2.8 4.6 3.3 172.8 169.6 0.00 0.0000000 70.6
2021-05-08 04:20:00 59.9 73.0 51.2 59.9 59.9 3.8 4.0 3.2 168.2 175.4 0.00 0.0000000 70.6
2021-05-08 04:25:00 60.0 72.5 51.1 60.0 60.0 4.0 4.2 3.6 164.4 154.9 0.00 0.0000000 70.5
2021-05-08 04:30:00 59.3 73.3 50.8 59.3 59.3 1.9 3.8 3.1 158.5 153.4 0.00 0.0000000 70.4
2021-05-08 04:35:00 59.1 74.5 51.0 59.1 59.1 2.6 2.6 2.0 164.8 171.1 0.00 0.0000000 70.4
2021-05-08 04:40:00 59.1 74.8 51.1 59.1 59.1 3.7 3.7 2.7 211.7 168.5 0.00 0.0000000 70.4
2021-05-08 04:45:00 59.6 74.0 51.3 59.6 59.6 5.1 5.1 3.8 166.5 176.8 0.00 0.0000000 70.3
2021-05-08 04:50:00 59.1 75.1 51.2 59.1 59.1 4.2 5.3 4.4 170.9 162.4 0.00 0.0000000 70.3
2021-05-08 04:55:00 59.1 76.3 51.6 59.1 59.1 2.6 4.6 3.1 185.2 198.6 0.00 0.0000000 70.2
2021-05-08 05:00:00 58.6 76.2 51.1 58.6 58.6 2.2 3.3 2.6 181.0 163.1 0.00 0.0000000 70.2
2021-05-08 05:05:00 58.4 77.2 51.3 58.4 58.4 2.1 2.2 2.0 116.5 189.2 0.00 0.0000000 70.1
2021-05-08 05:10:00 58.1 76.0 50.5 58.1 58.1 2.4 3.8 3.1 179.7 160.1 0.00 0.0000000 70.1
2021-05-08 05:15:00 58.1 77.0 50.9 58.1 58.1 1.3 2.8 2.0 167.3 189.7 0.00 0.0000000 70.0
2021-05-08 05:20:00 58.4 77.5 51.4 58.4 58.4 2.8 4.0 2.9 158.5 202.1 0.00 0.0000000 70.0
2021-05-08 05:25:00 58.4 76.2 51.0 58.4 58.4 2.8 3.7 3.1 206.2 169.7 0.00 0.0000000 70.0
2021-05-08 05:30:00 58.6 76.3 51.2 58.6 58.6 3.5 4.0 2.7 196.2 193.3 0.00 0.0000000 69.9
2021-05-08 05:35:00 59.8 73.3 51.2 59.8 59.8 3.3 4.9 3.8 194.1 179.2 0.00 0.0000000 69.9
2021-05-08 05:40:00 60.1 72.3 51.2 60.1 60.1 3.8 4.0 3.6 182.6 188.2 0.00 0.0000000 69.8
2021-05-08 05:45:00 60.4 71.2 51.0 60.4 60.4 3.0 4.4 3.7 186.6 176.1 0.00 0.0000000 69.7
2021-05-08 05:50:00 60.5 70.5 50.9 60.5 60.5 3.5 3.8 3.0 157.9 175.8 0.00 0.0010000 69.7
2021-05-08 05:55:00 59.5 71.9 50.4 59.5 59.5 2.6 4.6 3.0 161.6 157.4 0.00 0.0020000 69.7
2021-05-08 06:00:00 59.3 73.0 50.6 59.3 59.3 2.8 3.3 2.8 152.2 146.5 0.00 0.0030000 69.6
2021-05-08 06:05:00 59.1 74.0 50.8 59.1 59.1 2.4 3.1 2.8 147.2 149.9 0.00 0.0050000 69.6
2021-05-08 06:10:00 58.8 74.4 50.7 58.8 58.8 3.3 3.7 3.2 141.6 144.6 0.00 0.0080000 69.5
2021-05-08 06:15:00 58.3 75.6 50.6 58.3 58.3 2.4 3.7 2.9 149.7 147.7 0.00 0.0120000 69.5
2021-05-08 06:20:00 58.6 75.0 50.7 58.6 58.6 4.7 4.7 3.7 151.2 150.5 0.00 0.0200000 69.4
2021-05-08 06:25:00 59.4 73.3 50.8 59.4 59.4 5.8 5.8 4.4 157.7 155.3 0.00 0.0290000 69.4
2021-05-08 06:30:00 59.9 73.0 51.2 59.9 59.9 5.6 6.7 5.7 143.8 154.9 0.00 0.0410000 69.3
2021-05-08 06:35:00 60.7 71.0 51.2 60.7 60.7 5.1 6.3 5.1 137.1 152.9 0.00 0.0540000 69.3
2021-05-08 06:40:00 62.2 66.5 50.9 62.2 62.2 8.7 9.7 6.2 206.6 166.2 0.00 0.0690000 69.3
2021-05-08 06:45:00 65.8 56.3 49.8 65.8 65.8 10.3 10.3 7.5 221.5 208.9 0.00 0.0870000 69.2
2021-05-08 06:50:00 68.9 49.9 49.4 68.9 68.9 13.3 13.3 10.0 283.5 221.6 0.00 0.1030000 69.2
2021-05-08 06:55:00 70.0 48.9 49.9 70.0 70.0 11.2 14.6 10.3 234.2 224.4 0.00 0.1210000 69.1
2021-05-08 07:00:00 70.4 47.1 49.3 70.4 70.4 9.7 13.0 9.7 206.8 222.8 0.00 0.1360000 69.1
2021-05-08 07:05:00 70.7 47.1 49.5 70.7 70.7 9.2 10.5 8.7 235.7 220.8 0.00 0.1520000 69.1
2021-05-08 07:10:00 71.1 46.1 49.3 71.1 71.1 13.3 13.3 9.0 228.9 226.9 0.00 0.1670000 69.0
2021-05-08 07:15:00 72.4 43.3 48.8 72.4 72.4 17.4 22.4 15.1 236.0 234.9 0.00 0.1830000 69.0
2021-05-08 07:20:00 73.0 43.0 49.2 73.0 73.0 18.0 21.0 16.9 250.6 237.4 0.00 0.1990000 69.0
2021-05-08 07:25:00 73.3 42.7 49.3 73.3 73.3 16.7 22.6 17.2 236.0 242.3 0.00 0.2160000 68.9
2021-05-08 07:30:00 74.0 42.0 49.4 74.0 74.0 17.2 21.7 17.2 224.9 236.8 0.00 0.2330000 68.9
2021-05-08 07:35:00 74.2 41.5 49.3 74.2 74.2 16.5 23.7 17.5 230.7 237.2 0.00 0.2500000 68.9
2021-05-08 07:40:00 74.4 40.8 49.0 74.4 74.4 20.1 21.4 18.2 238.8 240.0 0.00 0.2670000 68.9
2021-05-08 07:45:00 74.8 39.8 48.7 74.8 74.8 19.0 22.1 18.3 234.2 237.6 0.00 0.2860000 68.8
2021-05-08 07:50:00 75.2 39.8 49.1 75.2 75.2 18.1 21.9 17.4 240.1 235.0 0.00 0.3020000 68.8
2021-05-08 07:55:00 75.6 39.4 49.2 75.6 75.6 13.7 22.3 16.8 245.9 240.7 0.00 0.3210000 68.8
2021-05-08 08:00:00 75.9 37.6 48.2 75.9 75.9 20.3 21.4 17.6 241.9 237.4 0.00 0.3400000 68.8
2021-05-08 08:05:00 76.5 37.7 48.8 76.5 76.5 15.5 18.9 15.3 232.7 232.3 0.00 0.3570000 68.8
2021-05-08 08:10:00 76.8 37.2 48.7 76.8 76.8 16.0 21.9 16.4 249.2 235.5 0.00 0.3740000 68.7
2021-05-08 08:15:00 76.8 35.9 47.8 76.8 76.8 19.0 23.5 18.9 251.1 240.3 0.00 0.3900000 68.7
2021-05-08 08:20:00 77.2 37.5 49.3 77.2 77.2 11.3 20.1 16.4 245.1 236.8 0.00 0.4070000 68.7
2021-05-08 08:25:00 77.8 34.6 47.6 77.8 77.8 15.3 19.4 15.6 271.1 236.0 0.00 0.4240000 68.7
2021-05-08 08:30:00 77.8 32.5 46.0 77.8 77.8 22.6 22.6 18.5 256.2 245.7 0.00 0.4430000 68.7
2021-05-08 08:35:00 78.0 33.6 47.0 78.0 78.0 14.7 20.3 16.9 231.1 245.0 0.00 0.4610000 68.7
2021-05-08 08:40:00 78.5 32.7 46.8 78.5 78.5 16.4 22.6 16.0 229.6 243.6 0.00 0.4780000 68.7
2021-05-08 08:45:00 78.4 31.1 45.3 78.4 78.4 19.0 21.2 17.1 243.4 244.4 0.00 0.4950000 68.7
2021-05-08 08:50:00 78.7 33.1 47.3 78.7 78.7 15.6 23.2 17.5 214.1 241.0 0.00 0.5120000 68.7
2021-05-08 08:55:00 78.7 29.7 44.4 78.7 78.7 18.7 23.0 18.4 258.1 249.6 0.00 0.5280000 68.7
2021-05-08 09:00:00 79.0 30.3 45.2 79.0 79.0 16.5 22.8 18.0 232.3 249.2 0.00 0.5460000 68.7
2021-05-08 09:05:00 79.6 29.5 45.0 79.6 79.6 16.0 21.5 17.9 247.7 240.9 0.00 0.5590000 68.7
2021-05-08 09:10:00 79.6 29.6 45.1 79.6 79.6 13.1 21.2 17.6 257.7 249.3 0.00 0.5740000 68.7
2021-05-08 09:15:00 80.1 29.4 45.3 80.1 80.1 15.1 21.0 17.0 257.8 247.0 0.00 0.5920000 68.8
2021-05-08 09:20:00 80.1 28.3 44.4 80.1 80.1 14.9 21.9 17.7 267.8 243.7 0.00 0.6050000 68.8
2021-05-08 09:25:00 80.4 25.9 42.3 80.4 80.4 19.2 23.7 18.5 241.8 245.4 0.00 0.6190000 68.8
2021-05-08 09:30:00 80.7 27.4 44.1 80.7 80.7 14.7 22.3 17.3 251.5 245.1 0.00 0.6380000 68.8
2021-05-08 09:35:00 81.2 24.3 41.3 81.2 81.2 17.2 21.0 16.6 237.0 243.4 0.00 0.6480000 68.8
2021-05-08 09:40:00 81.5 24.5 41.8 81.5 81.5 14.4 21.9 16.2 239.2 241.6 0.00 0.6630000 68.8
2021-05-08 09:45:00 81.6 24.6 42.0 81.6 81.6 13.1 22.1 17.1 240.0 247.6 0.00 0.6760000 68.8
2021-05-08 09:50:00 82.5 21.6 39.3 82.5 82.5 14.6 20.1 15.3 235.7 242.4 0.00 0.6890000 68.9
2021-05-08 09:55:00 82.7 20.4 38.1 82.7 82.7 18.1 21.2 15.8 239.3 248.6 0.00 0.7040000 68.9
2021-05-08 10:00:00 83.0 20.4 38.4 83.0 83.0 15.3 22.1 16.1 254.5 245.0 0.00 0.7200000 68.9
2021-05-08 10:05:00 83.4 15.9 32.4 83.4 83.4 20.8 21.5 17.5 260.1 246.5 0.00 0.7370000 69.0
2021-05-08 10:10:00 83.8 15.6 32.1 83.8 83.8 11.2 19.8 14.5 208.3 246.8 0.00 0.7430000 69.0
2021-05-08 10:15:00 84.3 16.8 34.4 84.3 84.3 16.4 18.7 15.6 263.0 242.3 0.00 0.7500000 69.0
2021-05-08 10:20:00 83.9 15.3 31.9 83.9 83.9 18.5 19.9 16.2 257.1 245.1 0.00 0.7620000 69.1
2021-05-08 10:25:00 83.0 16.5 33.0 83.0 83.0 19.0 22.4 17.4 256.3 251.3 0.00 0.7730000 69.1
2021-05-08 10:30:00 84.5 17.0 34.9 84.5 84.5 17.8 22.4 16.5 248.7 246.7 0.00 0.7910000 69.1
2021-05-08 10:35:00 83.6 16.0 32.7 83.6 83.6 16.4 22.8 16.8 239.3 242.2 0.00 0.8060000 69.2
2021-05-08 10:40:00 84.2 14.3 30.4 84.2 84.2 21.0 21.0 16.7 247.0 236.9 0.00 0.8130000 69.2
2021-05-08 10:45:00 84.3 14.2 30.2 84.3 84.3 18.5 25.8 18.0 226.0 235.3 0.00 0.8230000 69.3
2021-05-08 10:50:00 84.7 12.1 26.7 84.7 84.7 18.1 20.6 16.1 209.1 228.0 0.00 0.8350000 69.3
2021-05-08 10:55:00 84.5 14.1 30.2 84.5 84.5 14.7 21.4 15.3 220.8 232.5 0.00 0.8460000 69.4
2021-05-08 11:00:00 85.2 14.0 30.6 85.2 85.2 15.5 18.3 14.4 250.3 245.7 0.00 0.8540000 69.5
2021-05-08 11:05:00 84.1 15.5 32.3 84.1 84.1 11.5 17.4 13.7 243.1 243.3 0.00 0.8510000 69.5
2021-05-08 11:10:00 85.2 15.4 33.0 85.2 85.2 15.6 19.9 13.6 250.3 248.4 0.00 0.8620000 69.6
2021-05-08 11:15:00 86.1 15.8 34.4 86.1 86.1 16.4 17.1 11.6 225.7 224.0 0.00 0.8710000 69.7
2021-05-08 11:20:00 86.5 10.3 24.3 86.5 86.5 17.1 18.0 14.2 249.7 240.1 0.00 0.8930000 69.8
2021-05-08 11:25:00 87.1 10.2 24.4 87.1 87.1 19.2 23.0 18.6 246.4 250.6 0.00 0.9020000 69.9
2021-05-08 11:30:00 85.9 9.1 20.7 85.9 85.9 13.9 22.3 15.9 244.7 243.2 0.00 0.9070000 70.0
2021-05-08 11:35:00 86.6 9.1 21.2 86.6 86.6 17.2 22.3 16.0 225.5 230.8 0.00 0.9080000 70.1
2021-05-08 11:40:00 86.8 8.5 19.9 86.8 86.8 14.7 19.9 15.4 225.7 226.1 0.00 0.9190000 70.2
2021-05-08 11:45:00 87.7 8.4 20.1 87.7 87.7 19.9 23.5 16.9 250.2 244.0 0.00 0.9170000 70.3
2021-05-08 11:50:00 87.7 5.4 10.3 87.7 87.7 21.4 29.8 22.8 243.0 254.4 0.00 0.9400000 70.4
2021-05-08 11:55:00 87.7 6.6 14.7 87.7 87.7 15.8 24.8 19.0 239.5 235.6 0.00 0.9410000 70.5
2021-05-08 12:00:00 88.1 4.0 3.8 88.1 88.1 22.8 30.3 20.6 239.4 229.6 0.00 0.9470000 70.7
2021-05-08 12:05:00 87.9 5.2 9.4 87.9 87.9 21.4 24.6 19.4 238.3 239.4 0.00 0.9590000 70.8
2021-05-08 12:10:00 87.5 4.8 7.4 87.5 87.5 18.5 25.1 18.8 238.4 242.2 0.00 0.9520000 71.0
2021-05-08 12:15:00 87.9 5.1 9.1 87.9 87.9 18.7 25.5 19.6 238.5 232.2 0.00 0.9600000 71.1
2021-05-08 12:20:00 87.5 5.7 11.3 87.5 87.5 13.5 22.6 16.4 214.1 216.3 0.00 0.9630000 71.2
2021-05-08 12:25:00 88.9 7.9 19.5 88.9 88.9 9.2 23.9 18.0 203.9 230.6 0.00 0.9600000 71.4
2021-05-08 12:30:00 89.5 6.4 15.1 89.5 89.5 14.4 20.8 15.4 236.8 223.7 0.00 0.9630000 71.5
2021-05-08 12:35:00 87.8 5.2 9.5 87.8 87.8 22.4 25.8 20.3 254.7 237.2 0.00 0.9670000 71.7
2021-05-08 12:40:00 88.7 6.9 16.3 88.7 88.7 18.5 23.3 16.9 263.9 249.9 0.00 0.9620000 71.9
2021-05-08 12:45:00 89.0 8.1 20.4 89.0 89.0 16.9 19.4 14.9 267.5 244.6 0.00 0.9620000 72.0
2021-05-08 12:50:00 89.0 4.6 7.2 89.0 89.0 20.5 20.5 16.8 220.2 230.7 0.00 0.9620000 72.2
2021-05-08 12:55:00 88.8 9.0 22.7 88.8 88.8 14.0 21.7 17.8 263.5 245.9 0.00 0.9650000 72.4
2021-05-08 13:00:00 89.1 5.4 11.0 89.1 89.1 16.5 22.8 18.0 258.2 254.0 0.00 0.9650000 72.5
2021-05-08 13:05:00 88.8 6.0 13.2 88.8 88.8 18.5 21.0 16.6 228.6 233.7 0.00 0.9640000 72.7
2021-05-08 13:10:00 88.1 6.4 14.1 88.1 88.1 17.1 22.6 17.5 247.6 239.5 0.00 0.9590000 72.8
2021-05-08 13:15:00 87.9 7.0 16.3 87.9 87.9 11.3 28.9 18.3 209.3 230.0 0.00 0.9630000 73.0
2021-05-08 13:20:00 88.6 5.7 12.0 88.6 88.6 18.7 24.8 14.9 260.8 235.6 0.00 0.9600000 73.1
2021-05-08 13:25:00 87.8 5.8 12.0 87.8 87.8 17.4 24.2 17.2 242.8 245.2 0.00 0.9560000 73.2
2021-05-08 13:30:00 88.6 6.8 16.0 88.6 88.6 17.4 23.3 17.2 213.3 238.2 0.00 0.9570000 73.3
2021-05-08 13:35:00 88.7 4.6 7.1 88.7 88.7 19.6 23.9 17.6 229.6 218.1 0.00 0.9540000 73.5
2021-05-08 13:40:00 88.9 6.9 16.6 88.9 88.9 14.0 25.6 16.0 218.4 236.7 0.00 0.9460000 73.6
2021-05-08 13:45:00 90.1 4.0 5.2 90.1 90.1 22.1 24.9 19.3 240.8 230.7 0.00 0.9510000 73.7
2021-05-08 13:50:00 89.6 6.3 15.0 89.6 89.6 17.6 24.9 17.4 222.1 248.5 0.00 0.9350000 73.9
2021-05-08 13:55:00 90.3 5.2 11.1 90.3 90.3 22.6 27.8 18.1 246.6 232.8 0.00 0.9390000 74.0
2021-05-08 14:00:00 89.9 5.3 11.1 89.9 89.9 16.7 23.5 19.9 246.6 251.4 0.00 0.9320000 74.1
2021-05-08 14:05:00 89.6 6.7 16.4 89.6 89.6 13.3 20.6 16.0 214.5 239.8 0.00 0.9230000 74.2
2021-05-08 14:10:00 89.7 5.0 9.9 89.7 89.7 16.9 25.3 18.8 247.6 244.0 0.00 0.9200000 74.3
2021-05-08 14:15:00 88.8 6.4 14.8 88.8 88.8 21.7 26.5 18.3 205.7 224.2 0.00 0.9110000 74.5
2021-05-08 14:20:00 89.5 8.7 22.3 89.5 89.5 13.3 27.1 19.0 190.5 222.6 0.00 0.9060000 74.6
2021-05-08 14:25:00 89.8 4.7 8.5 89.8 89.8 14.9 22.6 16.9 224.4 223.2 0.00 0.9000000 74.7
2021-05-08 14:30:00 89.4 3.9 4.2 89.4 89.4 19.8 26.4 19.0 222.6 224.2 0.00 0.8910000 74.8
2021-05-08 14:35:00 90.1 5.8 13.7 90.1 90.1 18.5 28.1 17.7 230.7 225.8 0.00 0.8860000 74.9
2021-05-08 14:40:00 89.8 5.0 9.7 89.8 89.8 23.5 26.7 17.0 232.9 229.0 0.00 0.8790000 75.0
2021-05-08 14:45:00 89.9 5.5 12.1 89.9 89.9 15.3 23.9 19.8 222.8 231.5 0.00 0.8710000 75.1
2021-05-08 14:50:00 89.8 5.2 10.8 89.8 89.8 15.8 26.7 19.0 239.7 225.5 0.00 0.8660000 75.2
2021-05-08 14:55:00 89.5 3.6 2.3 89.5 89.5 27.1 32.6 22.2 252.1 239.5 0.00 0.8520000 75.3
2021-05-08 15:00:00 89.8 4.6 8.0 89.8 89.8 21.0 29.6 20.8 240.8 235.7 0.00 0.8450000 75.4
2021-05-08 15:05:00 89.8 4.8 9.1 89.8 89.8 18.9 27.2 22.0 234.8 243.2 0.00 0.8330000 75.5
2021-05-08 15:10:00 90.1 4.1 6.0 90.1 90.1 20.3 27.6 23.6 224.7 236.6 0.00 0.8190000 75.6
2021-05-08 15:15:00 89.8 4.1 5.8 89.8 89.8 21.5 27.4 21.9 275.3 238.5 0.00 0.8110000 75.7
2021-05-08 15:20:00 89.3 5.5 11.7 89.3 89.3 17.4 28.9 22.0 232.7 245.1 0.00 0.8010000 75.7
2021-05-08 15:25:00 89.9 4.1 5.8 89.9 89.9 24.6 30.5 23.8 244.2 244.1 0.00 0.7870000 75.8
2021-05-08 15:30:00 89.7 4.7 8.4 89.7 89.7 19.6 29.4 23.7 245.0 247.7 0.00 0.7730000 75.8
2021-05-08 15:35:00 89.6 5.4 11.5 89.6 89.6 20.8 26.4 19.7 248.7 237.9 0.00 0.7620000 75.9
2021-05-08 15:40:00 89.6 5.3 10.9 89.6 89.6 16.0 28.0 22.5 216.8 234.8 0.00 0.7480000 75.9
2021-05-08 15:45:00 90.3 4.8 9.3 90.3 90.3 24.9 28.0 21.5 214.5 234.5 0.00 0.7390000 76.0
2021-05-08 15:50:00 90.3 4.3 6.9 90.3 90.3 26.9 29.6 20.9 243.0 245.2 0.00 0.7240000 76.0
2021-05-08 15:55:00 89.7 4.1 5.3 89.7 89.7 22.6 24.9 20.6 250.3 257.3 0.00 0.7110000 76.1
2021-05-08 16:00:00 90.0 3.5 2.0 90.0 90.0 24.8 28.0 23.4 227.9 240.3 0.00 0.6970000 76.1
2021-05-08 16:05:00 89.9 5.6 12.7 89.9 89.9 19.2 25.1 20.1 249.0 244.7 0.00 0.6800000 76.1
2021-05-08 16:10:00 89.4 5.1 10.2 89.4 89.4 24.2 30.5 23.8 242.9 243.0 0.00 0.6650000 76.2
2021-05-08 16:15:00 89.6 4.9 9.3 89.6 89.6 18.5 30.5 22.3 246.2 253.5 0.00 0.6560000 76.2
2021-05-08 16:20:00 89.7 4.8 8.7 89.7 89.7 24.0 24.0 19.8 257.8 244.9 0.00 0.6410000 76.2
2021-05-08 16:25:00 89.5 4.0 4.8 89.5 89.5 20.3 27.2 22.5 258.5 248.0 0.00 0.6250000 76.2
2021-05-08 16:30:00 89.8 3.9 4.6 89.8 89.8 22.8 28.1 21.1 259.4 250.7 0.00 0.6090000 76.3
2021-05-08 16:35:00 89.8 5.0 10.0 89.8 89.8 18.7 28.3 19.0 248.2 255.4 0.00 0.5950000 76.2
2021-05-08 16:40:00 89.3 4.5 7.2 89.3 89.3 22.4 26.5 20.7 239.0 249.6 0.00 0.5780000 76.3
2021-05-08 16:45:00 90.1 5.0 10.3 90.1 90.1 21.5 25.1 17.9 252.0 247.2 0.00 0.5650000 76.3
2021-05-08 16:50:00 89.7 4.8 9.0 89.7 89.7 25.5 27.6 22.0 249.6 249.9 0.00 0.5470000 76.3
2021-05-08 16:55:00 89.0 5.1 9.8 89.0 89.0 27.6 27.6 20.0 235.6 251.6 0.00 0.5310000 76.3
2021-05-08 17:00:00 89.3 4.5 6.9 89.3 89.3 21.4 23.5 18.5 227.8 242.9 0.00 0.5160000 76.3
2021-05-08 17:05:00 89.4 5.3 10.8 89.4 89.4 24.0 25.8 20.5 260.4 236.2 0.00 0.4960000 76.3
2021-05-08 17:10:00 89.2 5.3 10.6 89.2 89.2 20.8 27.1 21.6 233.3 259.0 0.00 0.4800000 76.3
2021-05-08 17:15:00 88.7 5.0 9.3 88.7 88.7 20.1 23.0 19.3 257.2 259.5 0.00 0.4630000 76.3
2021-05-08 17:20:00 88.9 5.2 10.0 88.9 88.9 15.3 20.1 16.3 237.0 246.5 0.00 0.4440000 76.3
2021-05-08 17:25:00 89.1 5.3 10.6 89.1 89.1 19.2 22.3 18.6 258.2 249.9 0.00 0.4280000 76.3
2021-05-08 17:30:00 88.6 5.0 9.2 88.6 88.6 20.5 23.3 19.2 273.4 259.7 0.00 0.4090000 76.3
2021-05-08 17:35:00 88.7 4.4 6.4 88.7 88.7 17.8 23.2 18.3 240.3 261.8 0.00 0.3940000 76.3
2021-05-08 17:40:00 88.4 4.4 5.9 88.4 88.4 15.8 25.8 19.3 226.0 250.2 0.00 0.3780000 76.3
2021-05-08 17:45:00 88.7 4.0 4.3 88.7 88.7 22.1 26.0 17.8 262.6 256.5 0.00 0.3560000 76.3
2021-05-08 17:50:00 87.9 4.6 6.8 87.9 87.9 18.1 28.9 22.4 251.2 264.5 0.00 0.3340000 76.3
2021-05-08 17:55:00 87.7 4.5 5.8 87.7 87.7 21.9 26.2 20.4 264.7 269.0 0.00 0.3180000 76.3
2021-05-08 18:00:00 87.9 4.2 4.6 87.9 87.9 24.8 24.8 19.1 265.5 256.4 0.00 0.3010000 76.2
2021-05-08 18:05:00 87.7 5.0 8.4 87.7 87.7 16.7 24.9 19.6 262.2 254.2 0.00 0.2810000 76.2
2021-05-08 18:10:00 87.5 4.5 5.7 87.5 87.5 18.7 21.7 16.7 248.4 245.5 0.00 0.2640000 76.2
2021-05-08 18:15:00 87.7 4.3 5.2 87.7 87.7 21.7 21.7 16.8 247.6 251.3 0.00 0.2150000 76.2
2021-05-08 18:20:00 87.4 5.2 8.9 87.4 87.4 20.3 20.5 15.9 258.3 251.4 0.00 0.0530000 76.1
2021-05-08 18:25:00 86.9 4.6 6.1 86.9 86.9 18.3 23.7 18.6 251.7 259.3 0.00 0.0490000 76.1
2021-05-08 18:30:00 87.2 4.6 6.0 87.2 87.2 17.8 25.5 20.9 247.0 255.1 0.00 0.0480000 76.1
2021-05-08 18:35:00 87.0 4.3 4.5 87.0 87.0 23.7 23.7 20.2 241.9 255.0 0.00 0.0470000 76.0
2021-05-08 18:40:00 86.3 5.0 7.3 86.3 86.3 20.1 26.5 21.2 260.6 259.4 0.00 0.0640000 76.0
2021-05-08 18:45:00 86.1 4.7 5.7 86.1 86.1 20.8 23.2 19.3 267.7 262.3 0.00 0.1010000 76.0
2021-05-08 18:50:00 85.9 4.7 5.6 85.9 85.9 16.9 19.6 16.1 257.6 259.6 0.00 0.1270000 75.9
2021-05-08 18:55:00 86.2 4.6 5.6 86.2 86.2 15.3 20.6 16.5 266.4 257.1 0.00 0.1170000 75.9
2021-05-08 19:00:00 85.6 4.8 6.2 85.6 85.6 14.9 21.5 16.5 250.8 252.1 0.00 0.1030000 75.9
2021-05-08 19:05:00 84.9 5.0 6.3 84.9 84.9 15.1 19.0 15.5 250.6 251.1 0.00 0.0880000 75.8
2021-05-08 19:10:00 85.1 4.7 5.2 85.1 85.1 16.7 24.0 17.5 240.1 254.5 0.00 0.0720000 75.8
2021-05-08 19:15:00 84.7 4.8 5.5 84.7 84.7 14.7 20.3 16.9 245.6 251.0 0.00 0.0560000 75.8
2021-05-08 19:20:00 84.1 5.2 6.9 84.1 84.1 13.0 20.5 15.6 256.0 254.0 0.00 0.0410000 75.7
2021-05-08 19:25:00 83.0 5.4 6.7 83.0 83.0 13.1 16.0 12.6 254.3 257.5 0.00 0.0230000 75.7
2021-05-08 19:30:00 82.8 5.4 6.8 82.8 82.8 13.1 17.4 14.0 265.1 257.2 0.00 0.0170000 75.7
2021-05-08 19:35:00 82.3 5.9 8.1 82.3 82.3 12.2 17.1 13.5 250.2 252.0 0.00 0.0110000 75.6
2021-05-08 19:40:00 82.2 5.5 6.8 82.2 82.2 16.5 17.1 13.9 243.9 249.9 0.00 0.0070000 75.5
2021-05-08 19:45:00 81.5 5.9 7.8 81.5 81.5 11.9 16.9 13.3 256.3 252.9 0.00 0.0040000 75.5
2021-05-08 19:50:00 80.9 6.0 7.6 80.9 80.9 12.2 16.0 12.4 239.5 250.9 0.00 0.0020000 75.4
2021-05-08 19:55:00 80.5 5.7 6.2 80.5 80.5 15.6 16.5 12.3 258.4 250.8 0.00 0.0010000 75.4
2021-05-08 20:00:00 80.4 6.3 8.4 80.4 80.4 9.7 15.8 12.7 249.0 251.1 0.00 0.0000000 75.3
2021-05-08 20:05:00 79.1 6.8 9.0 79.1 79.1 11.2 12.6 10.9 238.1 250.4 0.00 0.0000000 75.3
2021-05-08 20:10:00 78.4 6.9 8.9 78.4 78.4 9.9 13.5 10.6 259.9 254.4 0.00 0.0000000 75.2
2021-05-08 20:15:00 78.4 6.7 8.2 78.4 78.4 12.1 12.8 10.9 239.6 255.6 0.00 0.0000000 75.2
2021-05-08 20:20:00 78.9 6.6 8.3 78.9 78.9 13.7 14.9 11.6 257.1 252.0 0.00 0.0000000 75.1
2021-05-08 20:25:00 78.5 7.1 9.5 78.5 78.5 8.5 14.6 11.2 249.9 252.1 0.00 0.0000000 75.0
2021-05-08 20:30:00 77.4 7.3 9.4 77.4 77.4 9.7 11.7 9.7 245.1 251.1 0.00 0.0000000 75.0
2021-05-08 20:35:00 77.1 7.4 9.5 77.1 77.1 10.1 10.6 9.4 249.1 252.2 0.00 0.0000000 74.9
2021-05-08 20:40:00 76.4 7.6 9.5 76.4 76.4 9.2 10.8 9.4 250.6 255.2 0.00 0.0000000 74.9
2021-05-08 20:45:00 76.1 8.0 10.5 76.1 76.1 8.3 10.3 8.9 239.5 254.2 0.00 0.0000000 74.8
2021-05-08 20:50:00 75.2 8.6 11.4 75.2 75.2 8.0 10.3 8.1 253.0 251.9 0.00 0.0000000 74.7
2021-05-08 20:55:00 74.4 8.6 10.8 74.4 74.4 8.7 8.7 7.7 250.7 252.3 0.00 0.0000000 74.7
2021-05-08 21:00:00 73.7 8.9 11.1 73.7 73.7 8.0 9.0 7.9 249.2 252.3 0.00 0.0000000 74.6
2021-05-08 21:05:00 73.3 9.3 11.8 73.3 73.3 7.6 8.5 7.2 245.2 250.9 0.00 0.0000000 74.5
2021-05-08 21:10:00 72.6 9.9 12.6 72.6 72.6 6.2 8.0 6.8 258.9 251.5 0.00 0.0000000 74.5
2021-05-08 21:15:00 71.7 10.4 13.1 71.7 71.7 6.0 7.1 6.3 240.3 249.6 0.00 0.0000000 74.4
2021-05-08 21:20:00 71.4 10.3 12.5 71.4 71.4 6.7 6.9 6.2 253.6 252.4 0.00 0.0000000 74.3
2021-05-08 21:25:00 71.8 9.9 12.1 71.8 71.8 6.3 8.5 6.8 254.7 252.5 0.00 0.0000000 74.3
2021-05-08 21:30:00 71.6 10.3 12.7 71.6 71.6 6.0 7.4 6.4 249.6 251.1 0.00 0.0000000 74.2
2021-05-08 21:35:00 70.8 10.7 13.0 70.8 70.8 5.5 6.9 6.0 255.0 250.3 0.00 0.0000000 74.1
2021-05-08 21:40:00 70.6 10.5 12.5 70.6 70.6 6.2 6.9 5.9 244.1 248.4 0.00 0.0000000 74.1
2021-05-08 21:45:00 69.9 11.0 13.0 69.9 69.9 6.0 6.3 5.6 249.2 250.3 0.00 0.0000000 74.0
2021-05-08 21:50:00 69.5 11.4 13.4 69.5 69.5 6.2 6.5 5.8 249.6 250.6 0.00 0.0000000 73.9
2021-05-08 21:55:00 69.2 10.5 11.3 69.2 69.2 8.8 8.8 6.4 263.9 252.1 0.00 0.0000000 73.9
2021-05-08 22:00:00 71.8 8.6 8.7 71.8 71.8 9.0 10.5 8.2 241.1 248.1 0.00 0.0000000 73.8
2021-05-08 22:05:00 72.5 9.0 10.3 72.5 72.5 7.2 9.7 8.3 246.8 248.8 0.00 0.0000000 73.7
2021-05-08 22:10:00 71.4 9.9 11.8 71.4 71.4 6.5 9.6 7.7 250.8 253.1 0.00 0.0000000 73.7
2021-05-08 22:15:00 69.8 11.4 13.8 69.8 69.8 7.1 7.6 7.0 262.9 257.7 0.00 0.0000000 73.6
2021-05-08 22:20:00 68.6 12.5 14.8 68.6 68.6 7.2 7.6 7.1 262.5 259.1 0.00 0.0000000 73.5
2021-05-08 22:25:00 67.9 12.1 13.6 67.9 67.9 7.6 8.0 7.3 255.4 260.3 0.00 0.0000000 73.5
2021-05-08 22:30:00 67.8 11.9 13.0 67.8 67.8 7.2 9.2 7.6 239.7 256.3 0.00 0.0000000 73.4
2021-05-08 22:35:00 67.7 11.9 13.0 67.7 67.7 7.2 8.8 7.8 249.6 256.9 0.00 0.0000000 73.3
2021-05-08 22:40:00 67.8 12.0 13.4 67.8 67.8 7.8 9.0 7.9 257.6 257.2 0.00 0.0000000 73.3
2021-05-08 22:45:00 67.2 12.5 13.8 67.2 67.2 7.4 8.8 7.8 253.9 255.3 0.00 0.0000000 73.2
2021-05-08 22:50:00 66.8 13.1 14.6 66.8 66.8 6.5 8.7 7.2 264.3 255.5 0.00 0.0000000 73.1
2021-05-08 22:55:00 65.9 13.0 13.7 65.9 65.9 6.9 7.4 6.8 251.5 256.4 0.00 0.0000000 73.1
2021-05-08 23:00:00 65.6 13.8 14.6 65.6 65.6 6.3 7.4 6.4 253.4 262.4 0.00 0.0000000 73.0
2021-05-08 23:05:00 65.0 13.9 14.4 65.0 65.0 6.2 7.1 6.0 253.1 259.7 0.00 0.0000000 72.9
2021-05-08 23:10:00 64.3 14.6 15.0 64.3 64.3 5.6 6.3 5.7 263.9 255.6 0.00 0.0000000 72.9
2021-05-08 23:15:00 64.0 15.4 16.0 64.0 64.0 6.2 6.9 5.9 272.4 261.9 0.00 0.0000000 72.8
2021-05-08 23:20:00 64.0 14.9 15.2 64.0 64.0 6.2 6.9 6.0 246.9 265.3 0.00 0.0000000 72.7

Data is courtesy of the NM Climate Center. DO NOT USE IN LEGAL PROCEEDINGS.